createdAt,value
2022-11-21T00:01:24.449Z,99909.94
2022-11-21T00:03:51.295Z,99911.78
2022-11-21T00:06:18.963Z,99913.69
2022-11-21T00:08:46.391Z,99906.72
2022-11-21T00:11:13.550Z,99884.25
2022-11-21T00:13:40.984Z,99888.06
2022-11-21T00:16:12.024Z,99894.59
2022-11-21T00:18:39.434Z,99873.88
2022-11-21T00:21:12.089Z,99878.00
2022-11-21T00:23:38.941Z,99863.31
2022-11-21T00:26:11.347Z,99863.91
2022-11-21T00:28:38.741Z,99867.97
2022-11-21T00:31:06.566Z,99852.31
2022-11-21T00:33:36.679Z,99838.63
2022-11-21T00:36:10.228Z,99859.69
2022-11-21T00:38:37.580Z,99850.53
2022-11-21T00:41:05.024Z,99857.69
2022-11-21T00:43:32.250Z,99823.00
2022-11-21T00:46:01.226Z,99829.69
2022-11-21T00:48:28.128Z,99849.09
2022-11-21T00:50:54.764Z,99829.13
2022-11-21T00:53:21.381Z,99833.69
2022-11-21T00:55:48.074Z,99838.97
2022-11-21T00:58:14.734Z,99828.91
2022-11-21T01:00:41.516Z,99782.63
2022-11-21T01:03:08.218Z,99830.31
2022-11-21T01:05:34.853Z,99827.03
2022-11-21T01:08:01.462Z,99820.66
2022-11-21T01:10:28.108Z,99820.34
2022-11-21T01:12:54.721Z,99842.50
2022-11-21T01:15:21.384Z,99831.34
2022-11-21T01:17:48.128Z,99824.44
2022-11-21T01:20:14.946Z,99832.13
2022-11-21T01:22:41.903Z,99829.50
2022-11-21T01:25:08.714Z,99819.53
2022-11-21T01:27:35.548Z,99817.16
2022-11-21T01:30:02.182Z,99808.91
2022-11-21T01:32:28.817Z,99820.19
2022-11-21T01:34:55.497Z,99788.66
2022-11-21T01:37:22.111Z,99788.97
2022-11-21T01:39:48.700Z,99805.38
2022-11-21T01:42:15.305Z,99803.84
2022-11-21T01:44:50.151Z,99787.53
2022-11-21T01:47:17.616Z,99783.94
2022-11-21T01:49:45.925Z,99793.47
2022-11-21T01:52:31.865Z,99790.56
2022-11-21T01:55:06.990Z,99787.72
2022-11-21T01:57:40.881Z,99769.94
2022-11-21T02:00:24.057Z,99802.25
2022-11-21T02:02:58.016Z,99793.03
2022-11-21T02:05:30.150Z,99796.72
2022-11-21T02:08:04.559Z,99787.13
2022-11-21T02:10:32.510Z,99810.19
2022-11-21T02:13:00.389Z,99808.19
2022-11-21T02:15:29.917Z,99807.13
2022-11-21T02:17:56.824Z,99803.13
2022-11-21T02:20:27.940Z,99816.06
2022-11-21T02:23:16.423Z,99815.19
2022-11-21T02:25:43.467Z,99809.50
2022-11-21T02:28:15.299Z,99806.16
2022-11-21T02:30:43.435Z,99794.19
2022-11-21T02:33:11.369Z,99797.47
2022-11-21T02:35:38.367Z,99796.88
2022-11-21T02:38:24.933Z,99797.47
2022-11-21T02:41:18.073Z,99782.09
2022-11-21T02:44:08.111Z,99780.53
2022-11-21T02:46:36.024Z,99784.22
2022-11-21T02:49:07.678Z,99765.81
2022-11-21T02:51:34.511Z,99766.44
2022-11-21T02:54:01.168Z,99757.97
2022-11-21T02:56:27.913Z,99754.09
2022-11-21T02:58:55.066Z,99758.50
2022-11-21T03:01:21.744Z,99718.16
2022-11-21T03:03:48.357Z,99740.59
2022-11-21T03:06:14.947Z,99760.28
2022-11-21T03:08:41.589Z,99762.25
2022-11-21T03:11:08.206Z,99742.78
2022-11-21T03:13:34.828Z,99760.50
2022-11-21T03:16:01.474Z,99762.81
2022-11-21T03:18:28.080Z,99747.13
2022-11-21T03:20:54.662Z,99750.56
2022-11-21T03:23:21.268Z,99751.72
2022-11-21T03:25:47.918Z,99757.09
2022-11-21T03:28:14.561Z,99756.19
2022-11-21T03:30:41.161Z,99757.69
2022-11-21T03:33:07.766Z,99751.13
2022-11-21T03:35:34.427Z,99754.03
2022-11-21T03:38:01.085Z,99745.69
2022-11-21T03:40:27.753Z,99747.13
2022-11-21T03:42:54.389Z,99755.94
2022-11-21T03:45:21.015Z,99738.66
2022-11-21T03:47:47.615Z,99752.59
2022-11-21T03:50:17.227Z,99758.34
2022-11-21T03:52:43.866Z,99771.31
2022-11-21T03:55:10.596Z,99743.00
2022-11-21T03:57:37.284Z,99755.22
2022-11-21T04:00:04.414Z,99763.31
2022-11-21T04:02:31.278Z,99756.44
2022-11-21T04:04:57.938Z,99762.69
2022-11-21T04:07:24.909Z,99760.41
2022-11-21T04:09:51.538Z,99761.25
2022-11-21T04:12:18.202Z,99762.09
2022-11-21T04:14:44.849Z,99739.84
2022-11-21T04:17:11.524Z,99760.56
2022-11-21T04:19:38.133Z,99753.13
2022-11-21T04:22:04.768Z,99769.47
2022-11-21T04:24:31.536Z,99786.66
2022-11-21T04:26:58.486Z,99773.91
2022-11-21T04:29:25.111Z,99722.72
2022-11-21T04:31:52.181Z,99778.38
2022-11-21T04:34:18.812Z,99780.94
2022-11-21T04:36:45.558Z,99768.25
2022-11-21T04:39:12.242Z,99794.38
2022-11-21T04:41:38.864Z,99779.16
2022-11-21T04:44:05.749Z,99781.88
2022-11-21T04:46:32.395Z,99769.06
2022-11-21T04:48:59.008Z,99782.84
2022-11-21T04:51:25.621Z,99781.50
2022-11-21T04:53:52.258Z,99780.09
2022-11-21T04:56:18.920Z,99763.78
2022-11-21T04:58:45.559Z,99744.31
2022-11-21T05:01:12.658Z,99763.66
2022-11-21T05:03:39.643Z,99768.22
2022-11-21T05:06:06.284Z,99776.78
2022-11-21T05:08:33.030Z,99783.75
2022-11-21T05:11:18.225Z,99768.97
2022-11-21T05:13:44.950Z,99777.78
2022-11-21T05:16:11.629Z,99759.06
2022-11-21T05:18:38.286Z,99778.06
2022-11-21T05:21:05.007Z,99775.72
2022-11-21T05:23:31.805Z,99781.16
2022-11-21T05:25:58.467Z,99753.69
2022-11-21T05:28:25.216Z,99733.44
2022-11-21T05:30:51.879Z,99740.56
2022-11-21T05:33:18.966Z,99764.38
2022-11-21T05:35:45.783Z,99764.28
2022-11-21T05:38:12.551Z,99763.22
2022-11-21T05:40:39.592Z,99756.47
2022-11-21T05:43:24.851Z,99783.72
2022-11-21T05:45:51.780Z,99786.56
2022-11-21T05:48:18.768Z,99777.66
2022-11-21T05:50:51.556Z,99763.03
2022-11-21T05:53:18.949Z,99776.00
2022-11-21T05:55:46.410Z,99773.78
2022-11-21T05:58:13.905Z,99768.81
2022-11-21T06:00:40.584Z,99765.50
2022-11-21T06:03:30.587Z,99763.75
2022-11-21T06:06:09.522Z,99763.88
2022-11-21T06:08:42.634Z,99764.44
2022-11-21T06:11:12.730Z,99763.03
2022-11-21T06:13:40.343Z,99747.66
2022-11-21T06:16:13.677Z,99766.75
2022-11-21T06:18:43.294Z,99766.09
2022-11-21T06:21:16.791Z,99778.22
2022-11-21T06:23:45.980Z,99769.28
2022-11-21T06:26:16.185Z,99777.94
2022-11-21T06:28:44.334Z,99768.38
2022-11-21T06:31:26.158Z,99741.50
2022-11-21T06:33:58.384Z,99764.66
2022-11-21T06:36:26.498Z,99786.28
2022-11-21T06:38:55.384Z,99771.59
2022-11-21T06:41:26.977Z,99777.66
2022-11-21T06:43:53.702Z,99741.69
2022-11-21T06:46:20.323Z,99766.84
2022-11-21T06:48:46.974Z,99758.34
2022-11-21T06:51:16.881Z,99763.97
2022-11-21T06:53:44.349Z,99761.13
2022-11-21T06:56:11.291Z,99770.75
2022-11-21T06:58:38.211Z,99779.09
2022-11-21T07:01:07.789Z,99791.97
2022-11-21T07:03:35.382Z,99790.19
2022-11-21T07:06:02.905Z,99798.47
2022-11-21T07:08:31.627Z,99782.47
2022-11-21T07:11:24.215Z,99770.63
2022-11-21T07:13:50.773Z,99781.50
2022-11-21T07:16:17.431Z,99793.19
2022-11-21T07:18:45.496Z,99798.41
2022-11-21T07:21:12.230Z,99820.19
2022-11-21T07:23:39.116Z,99805.59
2022-11-21T07:26:08.398Z,99831.94
2022-11-21T07:28:35.250Z,99831.81
2022-11-21T07:31:07.130Z,99828.94
2022-11-21T07:33:39.623Z,99826.22
2022-11-21T07:36:07.113Z,99820.88
2022-11-21T07:38:33.779Z,99812.34
2022-11-21T07:41:00.435Z,99814.66
2022-11-21T07:43:27.095Z,99810.41
2022-11-21T07:45:53.897Z,99827.25
2022-11-21T07:48:20.538Z,99834.91
2022-11-21T07:50:47.426Z,99831.53
2022-11-21T07:53:14.181Z,99836.25
2022-11-21T07:55:41.259Z,99824.53
2022-11-21T07:58:12.028Z,99845.84
2022-11-21T08:00:42.675Z,99846.06
2022-11-21T08:03:11.856Z,99856.41
2022-11-21T08:05:40.830Z,99857.50
2022-11-21T08:08:08.827Z,99857.81
2022-11-21T08:10:41.860Z,99861.75
2022-11-21T08:13:08.476Z,99849.09
2022-11-21T08:15:35.965Z,99857.03
2022-11-21T08:18:08.910Z,99848.38
2022-11-21T08:20:35.932Z,99833.06
2022-11-21T08:23:03.043Z,99850.94
2022-11-21T08:25:30.408Z,99854.88
2022-11-21T08:27:58.525Z,99837.69
2022-11-21T08:30:25.958Z,99858.28
2022-11-21T08:32:52.695Z,99861.94
2022-11-21T08:35:19.440Z,99869.69
2022-11-21T08:37:46.479Z,99871.78
2022-11-21T08:40:13.151Z,99850.72
2022-11-21T08:42:39.811Z,99878.25
2022-11-21T08:45:07.228Z,99876.00
2022-11-21T08:47:34.157Z,99883.03
2022-11-21T08:50:05.743Z,99886.25
2022-11-21T08:52:35.703Z,99886.03
2022-11-21T08:55:02.431Z,99883.09
2022-11-21T08:57:31.487Z,99886.34
2022-11-21T08:59:58.199Z,99884.97
2022-11-21T09:02:24.974Z,99863.13
2022-11-21T09:04:53.379Z,99889.19
2022-11-21T09:07:20.034Z,99879.53
2022-11-21T09:09:46.881Z,99893.56
2022-11-21T09:12:14.126Z,99897.03
2022-11-21T09:15:00.042Z,99887.25
2022-11-21T09:17:45.373Z,99893.88
2022-11-21T09:20:27.412Z,99875.72
2022-11-21T09:22:54.411Z,99887.38
2022-11-21T09:25:22.013Z,99890.47
2022-11-21T09:27:48.700Z,99895.78
2022-11-21T09:30:16.441Z,99877.66
2022-11-21T09:32:43.272Z,99910.13
2022-11-21T09:35:12.216Z,99909.28
2022-11-21T09:37:42.089Z,99913.81
2022-11-21T09:40:16.248Z,99904.19
2022-11-21T09:43:18.426Z,99905.41
2022-11-21T09:45:50.378Z,99909.13
2022-11-21T09:49:09.041Z,99897.47
2022-11-21T09:51:39.486Z,99906.97
2022-11-21T09:54:32.017Z,99913.78
2022-11-21T09:57:34.794Z,99911.44
2022-11-21T10:00:26.153Z,99915.56
2022-11-21T10:03:05.991Z,99900.41
2022-11-21T10:05:45.052Z,99890.16
2022-11-21T10:08:53.275Z,99920.97
2022-11-21T10:15:57.643Z,99934.66
2022-11-21T10:18:44.870Z,99912.22
2022-11-21T10:21:41.412Z,99931.88
2022-11-21T10:24:38.205Z,99928.56
2022-11-21T10:27:27.428Z,99930.50
2022-11-21T10:30:03.282Z,99943.69
2022-11-21T10:32:38.506Z,99936.00
2022-11-21T10:35:20.875Z,99945.97
2022-11-21T10:37:55.892Z,99955.38
2022-11-21T10:40:44.472Z,99958.91
2022-11-21T10:44:01.187Z,99972.91
2022-11-21T10:46:27.946Z,99966.66
2022-11-21T10:49:20.644Z,99960.59
2022-11-21T10:55:15.916Z,99961.53
2022-11-21T10:57:51.208Z,99956.03
2022-11-21T11:00:26.784Z,99960.25
2022-11-21T11:03:07.512Z,99956.81
2022-11-21T11:05:38.894Z,99952.38
2022-11-21T11:08:50.831Z,99946.16
2022-11-21T11:11:22.276Z,99960.75
2022-11-21T11:14:02.387Z,99943.53
2022-11-21T11:16:34.071Z,99931.66
2022-11-21T11:19:23.181Z,99955.84
2022-11-21T11:21:56.174Z,99948.13
2022-11-21T11:24:33.339Z,99945.72
2022-11-21T11:27:05.593Z,99956.00
2022-11-21T11:29:35.281Z,99950.56
2022-11-21T11:32:24.416Z,99953.16
2022-11-21T11:34:51.097Z,99959.56
2022-11-21T11:37:53.830Z,99956.56
2022-11-21T11:40:44.547Z,99962.88
2022-11-21T11:44:06.585Z,99954.19
2022-11-21T11:47:31.079Z,99971.09
2022-11-21T11:50:17.445Z,99969.22
2022-11-21T11:53:21.005Z,99965.41
2022-11-21T11:55:54.429Z,99969.91
2022-11-21T11:58:55.221Z,99958.31
2022-11-21T12:01:50.285Z,99959.84
2022-11-21T12:04:41.724Z,99922.75
2022-11-21T12:11:15.959Z,99957.31
2022-11-21T12:13:51.905Z,99957.19
2022-11-21T12:16:28.012Z,99827.56
2022-11-21T12:19:12.942Z,99962.69
2022-11-21T12:21:39.786Z,99966.47
2022-11-21T12:24:11.414Z,99970.50
2022-11-21T12:27:18.368Z,99970.50
2022-11-21T12:30:04.664Z,99958.66
2022-11-21T12:33:17.274Z,99948.38
2022-11-21T12:36:40.829Z,99946.94
2022-11-21T12:39:48.151Z,99940.00
2022-11-21T12:42:44.527Z,99934.22
2022-11-21T12:45:28.654Z,99924.69
2022-11-21T12:48:25.884Z,99940.28
2022-11-21T12:52:00.130Z,99943.34
2022-11-21T12:55:09.553Z,99938.03
2022-11-21T12:57:45.182Z,99934.03
2022-11-21T13:00:32.946Z,99939.63
2022-11-21T13:03:14.601Z,99937.78
2022-11-21T13:05:49.812Z,99942.06
2022-11-21T13:08:24.511Z,99949.53
2022-11-21T13:11:30.919Z,99942.47
2022-11-21T13:14:14.002Z,99929.50
2022-11-21T13:16:48.440Z,99939.44
2022-11-21T13:19:27.541Z,99934.53
2022-11-21T13:21:55.018Z,99937.59
2022-11-21T13:24:44.636Z,99928.69
2022-11-21T13:27:41.954Z,99937.53
2022-11-21T13:30:11.641Z,99930.44
2022-11-21T13:32:51.941Z,99921.94
2022-11-21T13:35:21.540Z,99927.41
2022-11-21T13:38:10.249Z,99928.75
2022-11-21T13:40:39.963Z,99914.47
2022-11-21T13:45:58.795Z,99925.75
